Time;durP1;ratioP1;P1;durP2;ratioP2;P2;SDS_P1;SDS_P2;PMS_P1;PMS_P2;Temp;Humidity;BMP_temperature;BMP_pressure;BME280_temperature;BME280_humidity;BME280_pressure;Samples;Min_cycle;Max_cycle;Signal;HPM_P1;HPM_P2
2022/03/31 00:00:36;;;;;;;16.23;12.33;;;14.60;54.50;;;;;;5036335;28;20491;-45
2022/03/31 00:03:04;;;;;;;16.13;11.90;;;14.60;54.50;;;;;;5048097;28;20486;-47
2022/03/31 00:05:30;;;;;;;15.00;12.20;;;14.40;54.30;;;;;;5046796;28;20438;-47
2022/03/31 00:07:58;;;;;;;14.13;12.33;;;14.40;54.10;;;;;;5048461;28;20445;-44
2022/03/31 00:10:52;;;;;;;17.10;12.83;;;14.40;54.10;;;;;;5049847;28;20562;-44
2022/03/31 00:13:19;;;;;;;16.10;11.70;;;14.40;54.00;;;;;;5048567;28;20951;-44
2022/03/31 00:15:45;;;;;;;18.97;13.27;;;14.40;53.90;;;;;;5048211;28;20447;-45
2022/03/31 00:18:13;;;;;;;18.47;11.87;;;14.40;53.90;;;;;;5045384;28;20447;-44
2022/03/31 00:20:39;;;;;;;12.93;11.20;;;14.30;53.80;;;;;;5044893;28;20969;-46
2022/03/31 00:23:07;;;;;;;14.30;12.20;;;14.30;53.80;;;;;;5042352;28;20450;-45
2022/03/31 00:25:33;;;;;;;14.50;11.90;;;14.40;53.80;;;;;;5041872;28;20446;-45
2022/03/31 00:28:03;;;;;;;15.67;12.07;;;14.30;53.80;;;;;;5049307;28;20865;-45
2022/03/31 00:30:29;;;;;;;14.57;11.70;;;14.30;53.90;;;;;;5046293;28;20842;-44
2022/03/31 00:32:54;;;;;;;17.53;12.47;;;14.30;54.10;;;;;;5053201;28;20802;-44
2022/03/31 00:35:20;;;;;;;13.63;11.23;;;14.20;53.90;;;;;;5045783;28;20501;-46
2022/03/31 00:37:47;;;;;;;13.73;11.00;;;14.20;53.90;;;;;;5044569;28;20259;-44
2022/03/31 00:40:15;;;;;;;12.10;10.73;;;14.20;53.90;;;;;;5050034;28;20223;-43
2022/03/31 00:42:42;;;;;;;13.43;10.70;;;14.10;53.60;;;;;;5039883;28;20470;-44
2022/03/31 00:45:19;;;;;;;14.80;11.07;;;14.10;53.40;;;;;;5043702;28;20446;-44
2022/03/31 00:47:46;;;;;;;15.00;10.77;;;14.00;53.30;;;;;;5047023;28;20423;-44
2022/03/31 00:50:13;;;;;;;11.97;10.50;;;13.90;53.40;;;;;;5047327;28;20522;-45
2022/03/31 00:52:40;;;;;;;11.53;9.43;;;13.90;53.30;;;;;;5049829;28;20478;-44
2022/03/31 00:55:09;;;;;;;11.70;10.40;;;13.80;53.20;;;;;;5050802;28;20486;-43
2022/03/31 00:57:35;;;;;;;11.47;10.27;;;13.60;53.60;;;;;;5046705;28;20445;-43
2022/03/31 01:00:01;;;;;;;14.20;10.97;;;13.60;53.70;;;;;;5044997;28;20497;-44
2022/03/31 01:02:30;;;;;;;11.13;9.87;;;13.50;53.80;;;;;;5041921;28;20838;-45
2022/03/31 01:05:00;;;;;;;13.00;10.57;;;13.60;53.90;;;;;;5048848;28;20466;-46
2022/03/31 01:07:27;;;;;;;12.50;11.20;;;13.60;53.70;;;;;;5042418;28;20451;-44
2022/03/31 01:10:02;;;;;;;12.20;10.33;;;13.70;54.00;;;;;;5052564;28;20438;-43
2022/03/31 01:12:28;;;;;;;13.20;10.40;;;13.80;53.80;;;;;;5046830;28;20438;-43
2022/03/31 01:15:06;;;;;;;13.27;10.97;;;13.80;53.70;;;;;;5048578;28;20438;-44
2022/03/31 01:17:37;;;;;;;10.60;9.47;;;13.80;53.60;;;;;;5049040;28;20199;-44
2022/03/31 01:20:05;;;;;;;11.73;10.53;;;13.80;53.60;;;;;;5045165;28;21853;-44
2022/03/31 01:22:32;;;;;;;12.03;10.73;;;13.80;53.50;;;;;;5046833;28;20430;-43
2022/03/31 01:24:59;;;;;;;12.30;10.80;;;13.80;53.50;;;;;;5047946;28;20580;-44
2022/03/31 01:27:25;;;;;;;12.00;9.43;;;13.90;53.50;;;;;;5042887;28;20443;-46
2022/03/31 01:29:52;;;;;;;11.93;10.63;;;13.90;53.40;;;;;;5049864;28;20458;-44
2022/03/31 01:32:17;;;;;;;12.57;9.60;;;13.90;53.30;;;;;;5047775;28;20470;-44
2022/03/31 01:34:44;;;;;;;11.93;10.40;;;13.90;53.40;;;;;;5047492;28;20517;-43
2022/03/31 01:37:09;;;;;;;9.60;8.60;;;14.00;53.60;;;;;;5043053;28;20201;-43
2022/03/31 01:39:35;;;;;;;11.10;9.60;;;14.00;53.60;;;;;;5043851;28;20884;-46
2022/03/31 01:42:01;;;;;;;14.33;10.23;;;14.00;53.60;;;;;;5055938;28;20195;-43
2022/03/31 01:44:27;;;;;;;11.30;10.07;;;14.00;53.40;;;;;;5047107;28;20556;-43
2022/03/31 01:46:53;;;;;;;12.90;10.83;;;14.00;53.40;;;;;;5047627;28;20208;-45
2022/03/31 01:49:19;;;;;;;11.87;10.67;;;14.00;53.50;;;;;;5046961;28;20446;-44
2022/03/31 01:51:45;;;;;;;13.33;11.20;;;14.00;53.50;;;;;;5042723;28;20217;-43
2022/03/31 01:54:10;;;;;;;10.13;9.17;;;14.00;53.50;;;;;;5044867;28;20205;-43
2022/03/31 01:56:41;;;;;;;11.20;9.77;;;14.00;53.50;;;;;;5043269;28;20710;-44
2022/03/31 01:59:07;;;;;;;13.00;11.10;;;14.00;53.50;;;;;;5047826;28;20244;-43
2022/03/31 02:01:33;;;;;;;12.97;10.73;;;14.00;53.40;;;;;;5043345;28;20517;-43
2022/03/31 02:03:58;;;;;;;14.60;11.47;;;14.00;53.20;;;;;;5043828;28;20193;-44
2022/03/31 02:06:24;;;;;;;12.90;10.57;;;14.00;53.10;;;;;;5043190;28;20299;-43
2022/03/31 02:08:49;;;;;;;14.93;11.00;;;13.90;53.10;;;;;;5045898;28;20657;-45
2022/03/31 02:11:15;;;;;;;11.50;10.30;;;13.90;53.60;;;;;;5042403;28;20192;-45
2022/03/31 02:13:41;;;;;;;13.90;12.37;;;13.90;53.20;;;;;;5043388;28;20270;-43
2022/03/31 02:16:06;;;;;;;12.00;10.70;;;13.90;53.40;;;;;;5040902;28;20211;-43
2022/03/31 02:18:32;;;;;;;15.47;12.10;;;13.90;53.40;;;;;;5046210;28;20621;-44
2022/03/31 02:20:57;;;;;;;12.73;11.27;;;13.90;53.40;;;;;;5050447;28;20221;-43
2022/03/31 02:23:23;;;;;;;13.27;11.50;;;13.80;53.30;;;;;;5048024;28;20779;-44
2022/03/31 02:25:48;;;;;;;13.80;11.23;;;13.80;53.40;;;;;;5046072;28;20224;-44
2022/03/31 02:28:14;;;;;;;11.80;10.17;;;13.80;53.50;;;;;;5047827;28;20285;-45
2022/03/31 02:30:41;;;;;;;12.10;10.87;;;13.80;53.50;;;;;;5046956;28;20196;-43
2022/03/31 02:33:06;;;;;;;12.93;11.53;;;13.80;53.50;;;;;;5047442;28;20660;-44
2022/03/31 02:35:32;;;;;;;14.53;12.73;;;13.70;53.50;;;;;;5059748;28;20467;-43
2022/03/31 02:37:58;;;;;;;14.60;12.43;;;13.70;53.70;;;;;;5052431;28;20694;-43
2022/03/31 02:40:24;;;;;;;13.43;12.00;;;13.70;53.80;;;;;;5050290;28;20282;-43
2022/03/31 02:42:49;;;;;;;12.93;11.03;;;13.70;53.70;;;;;;5049630;28;20254;-44
2022/03/31 02:45:16;;;;;;;15.23;11.93;;;13.60;53.60;;;;;;5044936;28;20926;-44
2022/03/31 02:47:44;;;;;;;14.40;11.90;;;13.60;53.70;;;;;;5047093;28;20224;-43
2022/03/31 02:50:11;;;;;;;12.07;10.80;;;13.60;53.80;;;;;;5052713;28;20439;-43
2022/03/31 02:55:28;;;;;;;14.17;12.70;;;13.60;53.90;;;;;;5046017;28;20455;-43
2022/03/31 02:57:57;;;;;;;14.13;12.57;;;13.60;53.80;;;;;;5043848;28;20455;-44
2022/03/31 03:00:23;;;;;;;13.80;12.30;;;13.60;53.90;;;;;;5043411;28;21661;-43
2022/03/31 03:02:49;;;;;;;14.10;12.43;;;13.60;54.00;;;;;;5041124;28;20475;-46
2022/03/31 03:05:15;;;;;;;12.70;11.37;;;13.60;53.90;;;;;;5044544;28;20289;-44
2022/03/31 03:07:40;;;;;;;14.60;11.90;;;13.50;53.70;;;;;;5045693;28;20541;-44
2022/03/31 03:10:06;;;;;;;14.13;11.53;;;13.50;53.90;;;;;;5052354;28;20197;-45
2022/03/31 03:12:32;;;;;;;14.90;13.30;;;13.40;53.80;;;;;;5046341;28;20185;-45
2022/03/31 03:14:58;;;;;;;15.07;12.30;;;13.40;53.90;;;;;;5050934;28;20254;-47
2022/03/31 03:17:23;;;;;;;15.17;12.87;;;13.30;53.90;;;;;;5054071;28;21451;-44
2022/03/31 03:19:49;;;;;;;14.10;12.50;;;13.10;53.80;;;;;;5046875;28;20725;-44
2022/03/31 03:22:15;;;;;;;15.53;13.50;;;13.10;54.20;;;;;;5050501;28;20197;-45
2022/03/31 03:24:40;;;;;;;13.30;12.00;;;13.00;54.40;;;;;;5044250;28;20240;-43
2022/03/31 03:27:06;;;;;;;14.23;12.73;;;13.00;54.50;;;;;;5049609;28;20201;-45
2022/03/31 03:29:32;;;;;;;13.30;11.70;;;13.00;54.50;;;;;;5046623;28;20243;-45
2022/03/31 03:31:57;;;;;;;15.50;12.53;;;13.10;54.40;;;;;;5048461;28;20201;-44
2022/03/31 03:34:23;;;;;;;13.97;12.00;;;13.00;54.30;;;;;;5043590;28;20203;-44
2022/03/31 03:36:49;;;;;;;13.80;11.87;;;13.00;54.40;;;;;;5052347;28;20746;-43
2022/03/31 03:39:14;;;;;;;13.70;11.20;;;12.90;54.60;;;;;;5047263;28;20220;-44
2022/03/31 03:41:41;;;;;;;12.17;10.87;;;12.90;54.70;;;;;;5044108;28;20602;-44
2022/03/31 03:44:07;;;;;;;13.53;12.07;;;12.90;54.60;;;;;;5035001;28;20185;-43
2022/03/31 03:46:34;;;;;;;12.73;11.30;;;12.90;54.70;;;;;;5048056;28;21169;-44
2022/03/31 03:49:00;;;;;;;12.27;10.97;;;12.70;54.90;;;;;;5045459;28;20439;-43
2022/03/31 03:51:26;;;;;;;14.00;12.37;;;12.60;55.10;;;;;;5042480;28;20439;-44
2022/03/31 03:53:52;;;;;;;14.90;11.80;;;12.60;55.40;;;;;;5043886;28;20276;-44
2022/03/31 03:56:19;;;;;;;13.07;11.67;;;12.60;55.70;;;;;;5043125;28;20216;-43
2022/03/31 03:58:44;;;;;;;14.47;12.33;;;12.70;55.20;;;;;;5046244;28;20447;-45
2022/03/31 04:01:10;;;;;;;14.90;12.10;;;12.70;55.00;;;;;;5045549;28;20545;-43
2022/03/31 04:03:36;;;;;;;12.63;11.30;;;12.80;54.90;;;;;;5048533;28;20189;-43
2022/03/31 04:06:01;;;;;;;13.23;11.40;;;12.80;54.80;;;;;;5046762;28;20687;-43
2022/03/31 04:08:27;;;;;;;13.10;11.70;;;12.80;54.90;;;;;;5050456;28;20197;-44
2022/03/31 04:10:53;;;;;;;13.57;12.13;;;12.80;54.90;;;;;;5048455;28;20611;-45
2022/03/31 04:13:18;;;;;;;16.67;12.27;;;12.90;55.00;;;;;;5043523;28;20238;-43
2022/03/31 04:15:44;;;;;;;14.17;12.60;;;12.90;54.80;;;;;;5044520;28;20197;-43
2022/03/31 04:18:10;;;;;;;13.93;11.80;;;13.00;54.70;;;;;;5043622;28;20196;-43
2022/03/31 04:20:36;;;;;;;16.10;12.33;;;13.10;54.60;;;;;;5049124;28;20624;-43
2022/03/31 04:23:02;;;;;;;15.40;12.17;;;13.10;54.50;;;;;;5048712;28;20230;-43
2022/03/31 04:25:28;;;;;;;14.33;11.80;;;13.10;54.40;;;;;;5045815;28;20197;-43
2022/03/31 04:27:53;;;;;;;13.10;11.70;;;13.00;54.50;;;;;;5046646;28;20450;-44
2022/03/31 04:30:21;;;;;;;13.23;10.83;;;12.80;54.60;;;;;;5048366;28;20447;-43
2022/03/31 04:32:47;;;;;;;15.07;10.93;;;12.80;54.70;;;;;;5045912;28;20687;-43
2022/03/31 04:35:13;;;;;;;14.90;12.57;;;12.90;54.90;;;;;;5045034;28;20439;-44
2022/03/31 04:37:39;;;;;;;13.87;12.10;;;12.80;54.70;;;;;;5029474;28;20991;-43
2022/03/31 04:40:07;;;;;;;13.33;11.93;;;12.90;54.80;;;;;;5046226;28;20232;-44
2022/03/31 04:42:32;;;;;;;16.80;14.03;;;12.90;54.60;;;;;;5047871;28;20439;-44
2022/03/31 04:44:59;;;;;;;14.83;12.70;;;13.00;54.60;;;;;;5043032;28;20450;-43
2022/03/31 04:47:25;;;;;;;13.43;11.33;;;12.90;54.50;;;;;;5044109;28;20185;-44
2022/03/31 04:49:51;;;;;;;13.63;10.50;;;13.00;54.50;;;;;;5040267;28;20542;-45
2022/03/31 04:52:16;;;;;;;13.03;11.43;;;13.00;54.40;;;;;;5048597;28;20239;-44
2022/03/31 04:54:45;;;;;;;13.43;11.83;;;12.90;54.20;;;;;;5047410;28;20202;-44
2022/03/31 04:57:15;;;;;;;14.03;12.37;;;12.90;54.50;;;;;;5044468;28;20585;-45
2022/03/31 04:59:41;;;;;;;14.30;12.00;;;12.90;54.60;;;;;;5042425;28;20482;-43
2022/03/31 05:02:07;;;;;;;14.13;11.50;;;13.00;54.50;;;;;;5042946;28;20477;-44
2022/03/31 05:04:33;;;;;;;14.90;12.57;;;12.90;54.10;;;;;;5046479;28;20500;-45
2022/03/31 05:06:59;;;;;;;13.27;11.87;;;13.00;54.20;;;;;;5043272;28;20446;-43
2022/03/31 05:09:24;;;;;;;13.50;12.07;;;13.10;54.20;;;;;;5044689;28;20193;-44
2022/03/31 05:11:50;;;;;;;12.10;10.80;;;13.10;54.10;;;;;;5048101;28;20599;-44
2022/03/31 05:14:16;;;;;;;14.67;12.10;;;13.10;53.90;;;;;;5045262;28;20228;-43
2022/03/31 05:16:41;;;;;;;15.23;11.40;;;13.00;53.80;;;;;;5040079;28;20234;-44
2022/03/31 05:19:08;;;;;;;13.60;12.20;;;13.00;53.90;;;;;;5043421;28;20216;-43
2022/03/31 05:21:34;;;;;;;15.43;11.30;;;13.00;53.80;;;;;;5045577;28;20275;-43
2022/03/31 05:23:59;;;;;;;14.03;12.33;;;13.00;54.20;;;;;;5047002;28;20578;-43
2022/03/31 05:26:25;;;;;;;14.73;10.80;;;13.10;55.30;;;;;;5049756;28;20439;-43
2022/03/31 05:28:51;;;;;;;13.20;11.80;;;13.30;55.60;;;;;;5050852;28;20201;-43
2022/03/31 05:31:16;;;;;;;12.87;11.57;;;13.60;55.60;;;;;;5044853;28;20196;-43
2022/03/31 05:33:42;;;;;;;12.50;11.20;;;13.80;55.10;;;;;;5050603;28;20241;-44
2022/03/31 05:36:07;;;;;;;14.00;11.43;;;13.90;54.10;;;;;;5044206;28;20363;-43
2022/03/31 05:38:33;;;;;;;13.73;11.00;;;14.00;52.90;;;;;;5043693;28;20207;-42
2022/03/31 05:40:58;;;;;;;14.07;12.20;;;13.90;52.40;;;;;;5054444;28;20231;-43
2022/03/31 05:43:24;;;;;;;12.63;11.37;;;13.90;52.60;;;;;;5047444;28;20292;-43
2022/03/31 05:45:50;;;;;;;13.00;11.70;;;14.00;52.80;;;;;;5046752;28;20912;-43
2022/03/31 05:48:16;;;;;;;12.27;10.80;;;14.10;52.90;;;;;;5046932;28;20193;-43
2022/03/31 05:50:42;;;;;;;12.70;11.40;;;14.20;52.70;;;;;;5046813;28;20458;-43
2022/03/31 05:53:08;;;;;;;12.90;11.20;;;14.30;52.40;;;;;;5047938;28;20200;-43
2022/03/31 05:55:34;;;;;;;13.27;11.87;;;14.30;51.80;;;;;;5052061;28;20443;-43
2022/03/31 05:57:59;;;;;;;12.53;11.23;;;14.30;51.30;;;;;;5052097;28;20192;-43
2022/03/31 06:00:25;;;;;;;12.00;10.80;;;14.20;51.10;;;;;;5051471;28;20222;-43
2022/03/31 06:02:53;;;;;;;14.63;11.33;;;14.20;51.30;;;;;;5052246;28;20284;-42
2022/03/31 06:05:19;;;;;;;12.63;11.33;;;14.10;51.40;;;;;;5051563;28;20594;-43
2022/03/31 06:07:45;;;;;;;13.97;12.67;;;14.10;51.50;;;;;;5051334;28;20434;-43
2022/03/31 06:10:10;;;;;;;13.87;12.47;;;14.10;51.30;;;;;;5051275;28;20435;-44
2022/03/31 06:12:36;;;;;;;12.77;11.47;;;14.10;51.40;;;;;;5052727;28;20778;-43
2022/03/31 06:15:04;;;;;;;14.40;12.17;;;14.00;51.20;;;;;;5051117;28;20195;-43
2022/03/31 06:17:30;;;;;;;14.73;11.93;;;13.90;51.20;;;;;;5050661;28;20188;-45
2022/03/31 06:19:55;;;;;;;13.93;12.53;;;13.90;51.60;;;;;;5051123;28;20486;-44
2022/03/31 06:22:21;;;;;;;12.90;11.60;;;13.80;51.80;;;;;;5051086;28;20199;-44
2022/03/31 06:24:47;;;;;;;13.63;12.30;;;13.80;52.10;;;;;;5051277;28;20236;-45
2022/03/31 06:27:12;;;;;;;13.67;12.10;;;13.80;52.00;;;;;;5051337;28;20263;-44
2022/03/31 06:29:41;;;;;;;12.23;11.03;;;13.90;52.30;;;;;;5051791;28;20247;-45
2022/03/31 06:32:07;;;;;;;13.47;10.63;;;14.00;52.30;;;;;;5051544;28;20194;-45
2022/03/31 06:34:32;;;;;;;12.47;11.17;;;14.00;51.90;;;;;;5049924;28;20461;-43
2022/03/31 06:36:58;;;;;;;12.97;11.40;;;14.10;52.00;;;;;;5051370;28;20423;-44
2022/03/31 06:39:25;;;;;;;15.50;13.87;;;14.20;52.00;;;;;;5052035;28;20231;-44
2022/03/31 06:41:51;;;;;;;13.40;11.80;;;14.30;51.80;;;;;;5052036;28;20664;-43
2022/03/31 06:44:19;;;;;;;14.20;12.23;;;14.40;51.50;;;;;;5049306;28;20471;-44
2022/03/31 06:46:46;;;;;;;15.50;13.97;;;14.40;51.20;;;;;;5046780;28;20201;-44
2022/03/31 06:49:12;;;;;;;12.90;11.60;;;14.30;51.10;;;;;;5051330;28;20520;-45
2022/03/31 06:51:37;;;;;;;16.00;14.30;;;14.40;51.50;;;;;;5052134;28;20995;-43
2022/03/31 06:54:04;;;;;;;15.97;14.27;;;14.50;51.50;;;;;;5052575;28;20185;-45
2022/03/31 06:56:31;;;;;;;14.30;12.83;;;14.60;51.30;;;;;;5058317;28;20226;-45
2022/03/31 06:58:58;;;;;;;13.97;12.57;;;14.60;51.20;;;;;;5052010;28;20447;-45
2022/03/31 07:01:25;;;;;;;15.60;14.00;;;14.70;51.00;;;;;;5052175;28;20435;-44
2022/03/31 07:03:51;;;;;;;15.17;12.83;;;14.80;50.80;;;;;;5052215;28;20435;-46
2022/03/31 07:06:18;;;;;;;14.40;12.90;;;14.80;50.60;;;;;;5048690;28;20804;-44
2022/03/31 07:08:43;;;;;;;14.20;12.27;;;14.90;50.30;;;;;;5049717;28;20438;-43
2022/03/31 07:11:10;;;;;;;14.27;12.80;;;14.90;50.00;;;;;;5049429;28;20994;-43
2022/03/31 07:13:36;;;;;;;14.53;12.93;;;15.00;50.10;;;;;;5052333;28;20193;-44
2022/03/31 07:16:02;;;;;;;14.07;12.00;;;15.00;50.00;;;;;;5051154;28;20431;-43
2022/03/31 07:18:30;;;;;;;15.37;13.07;;;15.00;50.00;;;;;;5052139;28;20526;-43
2022/03/31 07:20:57;;;;;;;14.83;12.97;;;15.00;50.00;;;;;;5049857;28;20479;-44
2022/03/31 07:23:25;;;;;;;15.10;13.13;;;15.00;50.10;;;;;;5059819;28;20567;-42
2022/03/31 07:25:52;;;;;;;14.63;13.13;;;15.00;50.20;;;;;;5050057;28;20937;-45
2022/03/31 07:28:17;;;;;;;15.27;13.77;;;15.10;50.10;;;;;;5051038;28;20466;-45
2022/03/31 07:30:43;;;;;;;15.93;14.40;;;15.10;50.00;;;;;;5050104;28;20843;-44
2022/03/31 07:33:09;;;;;;;16.87;15.00;;;15.10;49.90;;;;;;5049328;28;20201;-43
2022/03/31 07:35:37;;;;;;;14.97;13.43;;;15.00;50.00;;;;;;5048210;28;20192;-44
2022/03/31 07:38:03;;;;;;;15.50;13.90;;;15.00;50.10;;;;;;5046815;28;21235;-46
2022/03/31 07:40:29;;;;;;;17.30;14.13;;;14.90;50.20;;;;;;5048009;28;21019;-43
2022/03/31 07:42:55;;;;;;;16.10;14.40;;;14.80;50.40;;;;;;5050360;28;20435;-43
2022/03/31 07:45:22;;;;;;;14.37;12.87;;;14.80;50.60;;;;;;5048157;28;20652;-43
2022/03/31 07:47:48;;;;;;;16.37;14.57;;;14.70;50.80;;;;;;5049495;28;20432;-43
2022/03/31 07:50:16;;;;;;;15.40;13.73;;;14.70;50.80;;;;;;5048906;28;20451;-44
2022/03/31 07:52:43;;;;;;;15.73;13.37;;;14.70;50.60;;;;;;5050608;28;20431;-43
2022/03/31 07:55:10;;;;;;;16.70;14.93;;;14.60;50.60;;;;;;5049179;28;20463;-47
2022/03/31 07:57:38;;;;;;;16.83;15.03;;;14.60;50.90;;;;;;5049323;28;20433;-44
2022/03/31 08:00:06;;;;;;;15.40;13.80;;;14.50;50.90;;;;;;5049205;28;20909;-43
2022/03/31 08:02:32;;;;;;;17.30;15.07;;;14.50;51.40;;;;;;5050412;28;20459;-43
2022/03/31 08:04:57;;;;;;;15.93;13.47;;;14.50;51.30;;;;;;5048198;28;20493;-44
2022/03/31 08:07:23;;;;;;;15.40;13.77;;;14.50;51.50;;;;;;5048231;28;20596;-43
2022/03/31 08:09:48;;;;;;;16.33;14.40;;;14.40;51.80;;;;;;5050418;28;20629;-43
2022/03/31 08:12:14;;;;;;;15.80;12.87;;;14.40;51.90;;;;;;5049873;28;20196;-43
2022/03/31 08:14:40;;;;;;;16.43;12.30;;;14.50;51.90;;;;;;5046436;28;20218;-43
2022/03/31 08:17:05;;;;;;;15.87;10.90;;;14.60;52.00;;;;;;5045557;28;20199;-43
2022/03/31 08:19:32;;;;;;;16.53;13.60;;;14.80;51.90;;;;;;5046802;28;21836;-43
2022/03/31 08:22:02;;;;;;;16.83;14.87;;;15.00;51.90;;;;;;5046174;28;20189;-43
2022/03/31 08:24:28;;;;;;;15.27;13.60;;;15.10;50.80;;;;;;5055617;28;20467;-42
2022/03/31 08:26:54;;;;;;;18.20;14.50;;;15.10;50.50;;;;;;5049629;28;20441;-43
2022/03/31 08:29:20;;;;;;;17.70;14.27;;;15.20;50.10;;;;;;5048369;28;20443;-43
2022/03/31 08:31:46;;;;;;;16.47;13.90;;;15.20;50.20;;;;;;5054853;28;20984;-43
2022/03/31 08:34:11;;;;;;;13.13;11.40;;;15.20;50.10;;;;;;5048275;28;20703;-43
2022/03/31 08:36:37;;;;;;;14.60;11.80;;;15.40;50.10;;;;;;5047725;28;20435;-43
2022/03/31 08:39:05;;;;;;;17.37;13.67;;;15.40;49.90;;;;;;5031750;28;20192;-43
2022/03/31 08:41:31;;;;;;;16.33;14.53;;;15.50;49.70;;;;;;5048505;28;20184;-43
2022/03/31 08:43:57;;;;;;;16.47;13.80;;;15.50;49.50;;;;;;5049152;28;20435;-43
2022/03/31 08:46:27;;;;;;;16.23;13.67;;;15.40;49.60;;;;;;5047870;28;20434;-42
2022/03/31 08:48:54;;;;;;;17.63;15.10;;;15.50;50.40;;;;;;5049359;28;20200;-44
2022/03/31 08:51:21;;;;;;;15.97;14.10;;;15.40;49.80;;;;;;5047323;28;20961;-43
2022/03/31 08:53:47;;;;;;;17.33;15.37;;;15.50;49.50;;;;;;5048967;28;20431;-43
2022/03/31 08:56:12;;;;;;;15.43;13.77;;;15.50;49.70;;;;;;5048345;28;20438;-43
2022/03/31 08:58:38;;;;;;;13.67;12.23;;;15.60;49.40;;;;;;5049175;28;20245;-43
2022/03/31 09:01:03;;;;;;;16.57;14.23;;;15.60;49.40;;;;;;5048703;28;20224;-43
2022/03/31 09:03:37;;;;;;;16.67;14.33;;;15.70;49.30;;;;;;5046282;28;20197;-44
2022/03/31 09:06:04;;;;;;;18.40;14.80;;;15.60;49.10;;;;;;5045512;28;20212;-43
2022/03/31 09:08:30;;;;;;;14.77;13.27;;;15.70;49.20;;;;;;5048910;28;20917;-43
2022/03/31 09:10:58;;;;;;;17.77;15.33;;;15.70;49.20;;;;;;5047147;28;20434;-43
2022/03/31 09:13:34;;;;;;;17.87;14.77;;;15.80;49.40;;;;;;5049832;28;20431;-42
2022/03/31 09:16:06;;;;;;;16.20;14.57;;;15.90;49.20;;;;;;5047346;28;20530;-43
2022/03/31 09:18:34;;;;;;;16.30;14.17;;;15.90;49.00;;;;;;5046449;28;20435;-43
2022/03/31 09:21:04;;;;;;;17.03;14.23;;;15.80;49.30;;;;;;5044786;28;20569;-44
2022/03/31 09:23:41;;;;;;;16.80;15.00;;;15.80;49.40;;;;;;5048318;28;20493;-45
2022/03/31 09:26:11;;;;;;;18.83;15.90;;;15.80;49.40;;;;;;5044919;28;20537;-43
2022/03/31 09:28:37;;;;;;;19.50;13.70;;;15.80;49.30;;;;;;5029014;28;20542;-43
2022/03/31 09:31:03;;;;;;;17.87;14.77;;;15.90;49.30;;;;;;5048184;28;20870;-43
2022/03/31 09:33:29;;;;;;;17.00;15.13;;;15.90;49.10;;;;;;5052736;28;20513;-44
2022/03/31 09:36:04;;;;;;;17.83;15.93;;;15.80;49.20;;;;;;5053836;28;20909;-43
2022/03/31 09:38:35;;;;;;;16.63;14.20;;;15.80;49.10;;;;;;5048702;28;20597;-43
2022/03/31 09:41:03;;;;;;;25.90;17.30;;;15.90;49.10;;;;;;5043783;28;20573;-44
2022/03/31 09:43:42;;;;;;;26.33;14.27;;;15.90;49.50;;;;;;5049654;28;20863;-43
2022/03/31 09:46:23;;;;;;;17.73;14.10;;;15.90;49.70;;;;;;5046981;28;20942;-44
2022/03/31 09:48:51;;;;;;;17.97;14.40;;;15.90;49.80;;;;;;5051146;28;20443;-43
2022/03/31 09:51:21;;;;;;;17.67;15.40;;;15.80;49.50;;;;;;5048017;28;20542;-44
2022/03/31 09:53:48;;;;;;;35.50;16.80;;;15.90;49.60;;;;;;5049271;28;20449;-44
2022/03/31 09:56:17;;;;;;;38.33;16.93;;;15.90;49.80;;;;;;5043936;28;20585;-43
2022/03/31 09:58:46;;;;;;;18.50;14.20;;;15.90;50.00;;;;;;5047149;28;20423;-44
2022/03/31 10:01:16;;;;;;;16.93;14.33;;;16.00;50.00;;;;;;5043793;28;20467;-44
2022/03/31 10:03:42;;;;;;;17.97;14.80;;;16.10;50.10;;;;;;5047724;28;20430;-44
2022/03/31 10:06:08;;;;;;;17.60;15.13;;;16.10;49.80;;;;;;5047779;28;20890;-43
2022/03/31 10:08:40;;;;;;;18.60;15.53;;;16.10;49.70;;;;;;5051606;28;20442;-44
2022/03/31 10:11:10;;;;;;;19.00;16.13;;;16.00;49.80;;;;;;5045128;28;20508;-43
2022/03/31 10:13:53;;;;;;;21.33;16.77;;;16.00;50.20;;;;;;5054778;28;20501;-43
2022/03/31 10:16:29;;;;;;;18.07;14.90;;;16.00;50.80;;;;;;5045293;28;20439;-43
2022/03/31 10:18:54;;;;;;;19.10;15.53;;;16.10;50.90;;;;;;5044807;28;20577;-43
2022/03/31 10:21:33;;;;;;;17.80;15.00;;;16.20;51.00;;;;;;5050677;28;20949;-43
2022/03/31 10:26:43;;;;;;;16.87;14.23;;;16.30;50.20;;;;;;5048597;28;20933;-43
2022/03/31 10:29:14;;;;;;;18.00;14.13;;;16.20;50.20;;;;;;5043804;28;20443;-44
2022/03/31 10:31:45;;;;;;;19.03;14.77;;;16.40;50.60;;;;;;5051151;28;20206;-43
2022/03/31 10:34:14;;;;;;;18.63;15.10;;;16.70;50.10;;;;;;5047593;28;22937;-45
2022/03/31 10:36:41;;;;;;;17.70;14.87;;;16.80;49.30;;;;;;5047969;28;20449;-43
2022/03/31 10:39:16;;;;;;;18.73;15.83;;;16.90;49.00;;;;;;5051053;28;20481;-44
2022/03/31 10:41:44;;;;;;;18.07;16.07;;;16.90;49.10;;;;;;5050733;28;20778;-44
2022/03/31 10:44:12;;;;;;;20.13;16.13;;;16.80;49.70;;;;;;5049214;28;20442;-43
2022/03/31 10:46:40;;;;;;;16.33;14.43;;;16.70;49.40;;;;;;5049362;28;20442;-43
2022/03/31 10:49:12;;;;;;;19.97;16.03;;;16.70;49.40;;;;;;5050422;28;20846;-45
2022/03/31 10:51:40;;;;;;;17.23;15.20;;;16.80;49.70;;;;;;5050053;28;20953;-44
2022/03/31 10:54:08;;;;;;;19.83;15.67;;;16.90;49.90;;;;;;5048810;28;20938;-43
2022/03/31 10:56:34;;;;;;;18.23;15.37;;;17.00;49.60;;;;;;5045525;28;20431;-44
2022/03/31 10:59:03;;;;;;;17.33;15.40;;;17.00;48.80;;;;;;5050115;28;20802;-46
2022/03/31 11:01:29;;;;;;;19.50;16.00;;;17.00;48.60;;;;;;5046503;28;20521;-44
2022/03/31 11:04:07;;;;;;;18.63;16.60;;;17.00;49.10;;;;;;5050062;28;20458;-44
2022/03/31 11:06:43;;;;;;;19.03;15.23;;;17.00;49.20;;;;;;5051448;28;20478;-44
2022/03/31 11:09:23;;;;;;;21.03;16.60;;;16.90;49.30;;;;;;5049559;28;21008;-44
2022/03/31 11:11:51;;;;;;;19.93;16.20;;;16.90;49.20;;;;;;5050816;28;20462;-44
2022/03/31 11:14:17;;;;;;;20.50;16.77;;;17.00;49.20;;;;;;5053483;28;20439;-44
2022/03/31 11:16:43;;;;;;;23.40;16.90;;;17.10;49.20;;;;;;5048791;28;20435;-45
2022/03/31 11:19:09;;;;;;;20.50;15.87;;;17.00;49.00;;;;;;5043629;28;20452;-44
2022/03/31 11:21:36;;;;;;;18.17;15.60;;;17.00;49.30;;;;;;5044889;28;20770;-44
2022/03/31 11:24:04;;;;;;;17.23;15.00;;;17.00;49.10;;;;;;5049565;28;20644;-44
2022/03/31 11:26:32;;;;;;;19.00;16.60;;;17.10;49.00;;;;;;5048727;28;21788;-45
2022/03/31 11:28:59;;;;;;;24.73;15.30;;;17.00;49.90;;;;;;5049628;28;20469;-43
2022/03/31 11:31:25;;;;;;;19.23;15.40;;;17.00;49.50;;;;;;5039334;28;20447;-44
2022/03/31 11:33:51;;;;;;;19.77;14.80;;;16.20;50.20;;;;;;5049491;28;20473;-44
2022/03/31 11:36:18;;;;;;;20.13;15.00;;;16.30;51.00;;;;;;5048394;28;20196;-43
2022/03/31 11:39:04;;;;;;;20.43;15.10;;;16.50;50.70;;;;;;5049877;28;20857;-45
2022/03/31 11:41:41;;;;;;;17.83;15.40;;;16.80;50.20;;;;;;5047880;28;20463;-44
2022/03/31 11:44:08;;;;;;;20.83;14.40;;;16.90;50.30;;;;;;5047502;28;20443;-44
2022/03/31 11:46:47;;;;;;;16.10;14.47;;;17.00;49.90;;;;;;5046984;28;20443;-43
2022/03/31 11:49:20;;;;;;;20.20;15.50;;;17.20;49.50;;;;;;5043902;28;20438;-44
2022/03/31 11:51:57;;;;;;;18.03;15.00;;;17.30;49.50;;;;;;5043039;28;20441;-44
2022/03/31 11:54:25;;;;;;;19.00;14.93;;;17.40;49.30;;;;;;5040624;28;20435;-45
2022/03/31 11:57:12;;;;;;;20.30;14.77;;;17.40;48.90;;;;;;5047647;28;21169;-43
2022/03/31 11:59:38;;;;;;;18.33;13.83;;;17.50;49.00;;;;;;5044167;28;21066;-44
2022/03/31 12:02:14;;;;;;;17.50;14.27;;;17.60;48.80;;;;;;5045122;28;20435;-45
2022/03/31 12:04:43;;;;;;;18.90;14.80;;;17.70;48.60;;;;;;5041655;28;21366;-44
2022/03/31 12:07:10;;;;;;;17.53;15.30;;;17.70;48.40;;;;;;5044712;28;20439;-45
2022/03/31 12:09:38;;;;;;;17.20;15.40;;;17.80;48.80;;;;;;5048175;28;20517;-47
2022/03/31 12:12:06;;;;;;;21.07;15.93;;;17.90;48.60;;;;;;5047534;28;20872;-45
2022/03/31 12:14:34;;;;;;;19.00;15.30;;;17.90;48.30;;;;;;5045478;28;20431;-43
2022/03/31 12:17:00;;;;;;;17.37;13.30;;;17.90;48.70;;;;;;5046898;28;20478;-43
2022/03/31 12:19:36;;;;;;;17.00;14.20;;;18.00;48.80;;;;;;5044605;28;20471;-45
2022/03/31 12:22:01;;;;;;;22.53;15.10;;;18.10;48.30;;;;;;5045866;28;20441;-44
2022/03/31 12:24:27;;;;;;;17.53;13.60;;;18.20;47.50;;;;;;5028550;28;20565;-43
2022/03/31 12:26:58;;;;;;;18.27;14.57;;;18.40;47.50;;;;;;5046930;28;20200;-46
2022/03/31 12:29:26;;;;;;;16.07;14.13;;;18.40;47.90;;;;;;5040919;28;20200;-43
2022/03/31 12:32:06;;;;;;;14.03;10.47;;;18.60;47.80;;;;;;5044801;28;20610;-43
2022/03/31 12:34:34;;;;;;;14.47;12.10;;;18.70;47.60;;;;;;5044338;28;20527;-44